Time;durP1;ratioP1;P1;durP2;ratioP2;P2;SDS_P1;SDS_P2;PMS_P1;PMS_P2;Temp;Humidity;BMP_temperature;BMP_pressure;BME280_temperature;BME280_humidity;BME280_pressure;Samples;Min_cycle;Max_cycle;Signal;HPM_P1;HPM_P2
2022/05/25 00:01:47;;;;;;;4.53;2.15;;;16.70;99.90;;;;;;6188060;23;20228;-89
2022/05/25 00:04:23;;;;;;;4.00;2.05;;;16.20;99.90;;;;;;6187238;23;20235;-89
2022/05/25 00:06:54;;;;;;;4.78;2.17;;;16.20;99.90;;;;;;6185964;23;20643;-89
2022/05/25 00:09:30;;;;;;;2.80;2.13;;;16.20;99.90;;;;;;6161923;23;20583;-89
2022/05/25 00:12:02;;;;;;;3.20;1.90;;;16.10;99.90;;;;;;6186090;23;20230;-90
2022/05/25 00:14:28;;;;;;;2.10;1.90;;;;;;;;;;6186231;23;20156;-89
2022/05/25 00:17:04;;;;;;;4.32;1.98;;;16.00;99.90;;;;;;6186653;23;20257;-89
2022/05/25 00:22:19;;;;;;;6.38;2.63;;;16.10;99.90;;;;;;6188023;23;20167;-91
2022/05/25 00:24:52;;;;;;;4.82;2.20;;;16.00;99.90;;;;;;6188410;23;20630;-90
2022/05/25 00:27:25;;;;;;;4.07;2.50;;;15.50;99.90;;;;;;6164740;23;20157;-90
2022/05/25 00:30:04;;;;;;;4.57;2.92;;;15.50;99.90;;;;;;6162742;23;20171;-92
2022/05/25 00:32:34;;;;;;;4.18;2.38;;;15.70;99.90;;;;;;6188218;23;20184;-93
2022/05/25 00:35:03;;;;;;;4.50;2.72;;;;;;;;;;6164962;23;20192;-91
2022/05/25 00:37:40;;;;;;;2.80;2.28;;;15.20;99.90;;;;;;6187196;23;20161;-91
2022/05/25 00:40:13;;;;;;;4.00;2.83;;;15.10;99.90;;;;;;6188853;23;20160;-91
2022/05/25 00:42:59;;;;;;;3.30;2.60;;;15.10;99.90;;;;;;6190167;23;20152;-90
2022/05/25 00:45:25;;;;;;;6.70;2.70;;;;;;;;;;6166912;23;20161;-90
2022/05/25 00:48:01;;;;;;;2.83;2.30;;;14.90;99.90;;;;;;6198690;23;20167;-90
2022/05/25 00:51:12;;;;;;;3.42;2.35;;;15.00;99.90;;;;;;6205888;23;20188;-92
2022/05/25 00:53:19;;;;;;;6.88;2.83;;;14.90;99.90;;;;;;6209458;23;20247;-91
2022/05/25 00:55:54;;;;;;;2.97;2.53;;;14.80;99.90;;;;;;6193173;23;20595;-92
2022/05/25 00:58:20;;;;;;;2.75;2.40;;;14.80;99.90;;;;;;6193258;23;20215;-93
2022/05/25 01:00:46;;;;;;;3.22;2.58;;;;;;;;;;6230236;23;20152;-91
2022/05/25 01:03:15;;;;;;;4.03;3.05;;;14.80;99.90;;;;;;6198208;23;20511;-91
2022/05/25 01:06:23;;;;;;;3.20;2.50;;;14.70;99.90;;;;;;6219204;23;20152;-89
2022/05/25 01:09:17;;;;;;;3.92;2.80;;;14.80;99.90;;;;;;6193337;23;20156;-91
2022/05/25 01:12:17;;;;;;;4.32;2.72;;;14.80;99.90;;;;;;6217921;23;20172;-90
2022/05/25 01:14:57;;;;;;;3.45;2.70;;;14.80;99.90;;;;;;6190940;23;20163;-89
2022/05/25 01:17:51;;;;;;;2.58;2.38;;;14.70;99.90;;;;;;6190785;23;20156;-89
2022/05/25 01:20:29;;;;;;;4.40;2.10;;;14.60;99.90;;;;;;6191712;23;20215;-92
2022/05/25 01:23:19;;;;;;;3.55;2.50;;;14.70;99.90;;;;;;6191398;23;20575;-91
2022/05/25 01:26:09;;;;;;;2.95;2.38;;;14.30;99.90;;;;;;6190534;23;20243;-89
2022/05/25 01:29:04;;;;;;;3.58;2.55;;;14.60;99.90;;;;;;6190685;23;20283;-90
2022/05/25 01:32:07;;;;;;;2.90;2.60;;;14.50;99.90;;;;;;6216867;23;20217;-89
2022/05/25 01:34:48;;;;;;;2.65;2.15;;;14.40;99.90;;;;;;6130241;23;20164;-89
2022/05/25 01:37:34;;;;;;;2.35;2.13;;;14.40;99.90;;;;;;6191193;23;20160;-89
2022/05/25 01:40:14;;;;;;;3.63;2.22;;;14.40;99.90;;;;;;6190285;23;20155;-89
2022/05/25 01:43:02;;;;;;;5.25;2.88;;;13.10;99.90;;;;;;6190089;23;20156;-89
2022/05/25 01:45:33;;;;;;;3.40;2.60;;;14.40;99.90;;;;;;6190472;23;20491;-89
2022/05/25 01:48:05;;;;;;;4.20;2.60;;;14.40;99.90;;;;;;6218412;23;20194;-88
2022/05/25 01:50:59;;;;;;;4.40;2.20;;;14.40;99.90;;;;;;6200726;23;20187;-88
2022/05/25 01:53:36;;;;;;;4.03;2.65;;;14.40;99.90;;;;;;6210001;23;20219;-88
2022/05/25 01:56:15;;;;;;;2.83;2.25;;;14.30;99.90;;;;;;6192021;23;20166;-89
2022/05/25 01:58:51;;;;;;;4.13;2.45;;;14.30;99.90;;;;;;6216491;23;20140;-87
2022/05/25 02:01:17;;;;;;;4.20;2.60;;;14.30;99.90;;;;;;6214272;23;20166;-88
2022/05/25 02:07:06;;;;;;;2.20;2.00;;;14.20;99.90;;;;;;6157035;23;20506;-90
2022/05/25 02:09:58;;;;;;;3.45;2.33;;;14.10;99.90;;;;;;6209306;23;20231;-90
2022/05/25 02:12:49;;;;;;;3.95;2.47;;;14.10;99.90;;;;;;6213130;23;20173;-90
2022/05/25 02:15:43;;;;;;;4.03;2.17;;;14.10;99.90;;;;;;6213869;23;20166;-91
2022/05/25 02:18:17;;;;;;;5.20;2.35;;;14.00;99.90;;;;;;6243015;23;20140;-89
2022/05/25 02:20:47;;;;;;;2.67;2.13;;;14.10;99.90;;;;;;6217690;23;20143;-88
2022/05/25 02:23:23;;;;;;;2.47;2.00;;;14.10;99.90;;;;;;6216189;23;20160;-89
2022/05/25 02:26:03;;;;;;;3.17;2.15;;;14.10;99.90;;;;;;6242554;23;20124;-88
2022/05/25 02:29:03;;;;;;;4.75;2.13;;;14.00;99.90;;;;;;6216875;23;20163;-88
2022/05/25 02:31:36;;;;;;;3.55;2.60;;;14.10;99.90;;;;;;6243236;23;20160;-90
2022/05/25 02:34:04;;;;;;;2.75;2.30;;;14.10;99.90;;;;;;6217164;23;20159;-89
2022/05/25 02:36:35;;;;;;;3.10;2.28;;;14.10;99.90;;;;;;6217798;23;20183;-88
2022/05/25 02:39:06;;;;;;;5.35;2.38;;;14.10;99.90;;;;;;6241332;23;20144;-88
2022/05/25 02:41:34;;;;;;;3.47;2.40;;;14.10;99.90;;;;;;6239482;23;20152;-88
2022/05/25 02:44:02;;;;;;;2.95;2.63;;;14.10;99.90;;;;;;6214126;23;20148;-89
2022/05/25 02:46:28;;;;;;;3.55;2.40;;;14.00;99.90;;;;;;6214399;23;20206;-88
2022/05/25 02:48:56;;;;;;;6.25;2.55;;;;;;;;;;6217672;23;20172;-92
2022/05/25 02:51:22;;;;;;;4.55;2.30;;;14.00;99.90;;;;;;6190605;23;20246;-89
2022/05/25 02:53:50;;;;;;;2.50;2.30;;;13.90;99.90;;;;;;6186201;23;20168;-91
2022/05/25 02:56:19;;;;;;;3.22;2.88;;;;;;;;;;6206611;23;20152;-90
2022/05/25 02:58:52;;;;;;;2.78;2.45;;;13.80;99.90;;;;;;6206620;23;20167;-93
2022/05/25 03:01:34;;;;;;;4.60;2.60;;;13.80;99.90;;;;;;6159551;23;20156;-90
2022/05/25 03:04:02;;;;;;;3.67;2.30;;;14.30;99.90;;;;;;6200248;23;20156;-90
2022/05/25 03:06:28;;;;;;;2.83;2.15;;;;;;;;;;6198114;23;20152;-89
2022/05/25 03:08:57;;;;;;;3.92;2.95;;;;;;;;;;6194453;23;20156;-94
2022/05/25 03:11:30;;;;;;;5.05;2.92;;;13.80;99.90;;;;;;6191758;23;20706;-92
2022/05/25 03:14:01;;;;;;;3.15;2.60;;;13.80;99.90;;;;;;6190220;23;20601;-93
2022/05/25 03:16:27;;;;;;;2.33;1.95;;;;;;;;;;6216214;23;20559;-89
2022/05/25 03:18:59;;;;;;;2.35;1.70;;;13.70;99.90;;;;;;6189585;23;20167;-88
2022/05/25 03:21:43;;;;;;;5.25;2.53;;;13.70;99.90;;;;;;6165649;23;20164;-88
2022/05/25 03:24:16;;;;;;;2.97;2.55;;;13.80;99.90;;;;;;6163550;23;20198;-88
2022/05/25 03:26:56;;;;;;;;;;;;;;;;;;;;;
2022/05/25 03:29:23;;;;;;;3.60;2.40;;;;;;;;;;6170587;23;20215;-90
2022/05/25 03:31:56;;;;;;;3.75;2.60;;;;;;;;;;6189938;23;20180;-89
2022/05/25 03:34:41;;;;;;;3.63;2.60;;;13.90;99.90;;;;;;6188688;23;20231;-92
2022/05/25 03:37:10;;;;;;;3.08;2.72;;;;;;;;;;6167603;23;20185;-88
2022/05/25 03:39:43;;;;;;;5.82;3.33;;;14.00;99.90;;;;;;6189343;23;20473;-89
2022/05/25 03:42:17;;;;;;;3.67;3.10;;;14.00;99.90;;;;;;6189427;23;20187;-89
2022/05/25 03:44:45;;;;;;;3.45;2.85;;;14.40;99.90;;;;;;6189461;23;20206;-89
2022/05/25 03:47:14;;;;;;;3.42;2.60;;;;;;;;;;6187655;23;20196;-88
2022/05/25 03:49:58;;;;;;;;;;;;;;;;;;;;;
2022/05/25 03:52:27;;;;;;;3.13;2.72;;;;;;;;;;6215550;23;20266;-89
2022/05/25 03:55:00;;;;;;;3.17;2.88;;;14.00;99.90;;;;;;6176568;23;20222;-89
2022/05/25 03:57:30;;;;;;;2.80;2.40;;;14.00;99.90;;;;;;6165049;23;20156;-88
2022/05/25 03:59:59;;;;;;;3.70;3.28;;;14.10;99.90;;;;;;6189294;23;20210;-89
2022/05/25 04:02:29;;;;;;;4.97;2.92;;;14.30;99.90;;;;;;6164834;23;20160;-88
2022/05/25 04:05:10;;;;;;;4.30;2.97;;;13.90;99.90;;;;;;6165172;23;20163;-88
2022/05/25 04:07:47;;;;;;;4.53;3.10;;;14.00;99.90;;;;;;6167272;23;20168;-88
2022/05/25 04:10:30;;;;;;;3.40;2.65;;;13.90;99.90;;;;;;6189144;23;20156;-88
2022/05/25 04:12:59;;;;;;;5.28;3.33;;;;;;;;;;6189018;23;20609;-89
2022/05/25 04:15:30;;;;;;;4.20;3.17;;;14.00;99.90;;;;;;6188584;23;20167;-87
2022/05/25 04:17:56;;;;;;;5.25;2.80;;;14.00;99.90;;;;;;6188930;23;20170;-87
2022/05/25 04:20:29;;;;;;;4.18;2.90;;;14.20;99.90;;;;;;6190353;23;20253;-86
2022/05/25 04:22:58;;;;;;;3.08;2.58;;;14.20;99.90;;;;;;6217121;23;20148;-89
2022/05/25 04:25:33;;;;;;;4.97;3.33;;;14.30;99.90;;;;;;6190963;23;20160;-87
2022/05/25 04:27:59;;;;;;;5.07;3.10;;;;;;;;;;6218050;23;20140;-88
2022/05/25 04:30:28;;;;;;;3.47;2.88;;;14.40;99.90;;;;;;6192947;23;20167;-88
2022/05/25 04:33:09;;;;;;;5.55;3.28;;;14.50;99.90;;;;;;6201589;23;20166;-89
2022/05/25 04:35:41;;;;;;;4.53;3.60;;;14.60;99.90;;;;;;6192339;23;20160;-89
2022/05/25 04:38:15;;;;;;;3.40;2.72;;;14.50;99.90;;;;;;6242056;23;20140;-89
2022/05/25 04:40:44;;;;;;;3.83;2.35;;;14.60;99.90;;;;;;6208201;23;20267;-88
2022/05/25 04:43:22;;;;;;;3.88;3.08;;;14.70;99.90;;;;;;6240971;23;20170;-89
2022/05/25 04:45:55;;;;;;;3.38;2.90;;;14.80;99.90;;;;;;6215239;23;20191;-84
2022/05/25 04:48:25;;;;;;;4.63;3.17;;;14.90;99.90;;;;;;6210224;23;20160;-89
2022/05/25 04:50:56;;;;;;;3.47;2.53;;;15.00;99.90;;;;;;6216993;23;20254;-87
2022/05/25 04:53:27;;;;;;;4.47;3.25;;;15.20;99.90;;;;;;6217441;23;20152;-87
2022/05/25 04:58:39;;;;;;;4.35;3.15;;;15.10;99.90;;;;;;6217051;23;20168;-86
2022/05/25 05:04:54;;;;;;;2.60;2.40;;;15.10;99.90;;;;;;6201623;23;20223;-87
2022/05/25 05:07:36;;;;;;;3.75;2.85;;;15.30;99.90;;;;;;6152093;23;20163;-89
2022/05/25 05:10:04;;;;;;;6.45;3.88;;;;;;;;;;6218126;23;20140;-87
2022/05/25 05:12:40;;;;;;;5.28;2.78;;;15.30;99.90;;;;;;6191838;23;20545;-90
2022/05/25 05:15:10;;;;;;;4.07;2.97;;;15.40;99.90;;;;;;6194870;23;20601;-89
2022/05/25 05:17:38;;;;;;;4.18;3.25;;;15.90;99.90;;;;;;6194257;23;20156;-88
2022/05/25 05:20:11;;;;;;;3.85;3.05;;;15.50;99.90;;;;;;6191049;23;20585;-88
2022/05/25 05:22:42;;;;;;;5.53;3.17;;;15.70;99.90;;;;;;6217188;23;20148;-88
2022/05/25 05:25:14;;;;;;;3.53;2.75;;;15.50;99.90;;;;;;6190753;23;20140;-89
2022/05/25 05:27:48;;;;;;;4.72;2.72;;;;;;;;;;6142934;23;20187;-90
2022/05/25 05:30:37;;;;;;;3.88;2.92;;;15.50;99.90;;;;;;6190998;23;20579;-89
2022/05/25 05:33:03;;;;;;;4.72;2.55;;;;;;;;;;6244582;23;20139;-87
2022/05/25 05:35:39;;;;;;;;;;;;;;;;;;;;;
2022/05/25 05:38:15;;;;;;;3.28;2.85;;;15.80;99.90;;;;;;6244485;23;20116;-89
2022/05/25 05:40:43;;;;;;;3.25;2.90;;;15.80;99.90;;;;;;6244674;23;20120;-88
2022/05/25 05:47:09;;;;;;;4.28;3.15;;;16.00;99.90;;;;;;6244522;23;20131;-88
2022/05/25 05:49:37;;;;;;;7.65;3.15;;;15.90;99.90;;;;;;6244347;23;20142;-92
2022/05/25 05:52:06;;;;;;;4.72;3.05;;;15.70;99.90;;;;;;6243812;23;20303;-88
2022/05/25 05:54:35;;;;;;;3.75;2.72;;;15.80;99.90;;;;;;6244148;23;20159;-90
2022/05/25 05:57:01;;;;;;;3.60;2.80;;;16.10;99.90;;;;;;6218900;23;20163;-90
2022/05/25 05:59:27;;;;;;;3.72;2.92;;;15.90;99.90;;;;;;6218494;23;20208;-88
2022/05/25 06:01:53;;;;;;;4.85;3.50;;;16.00;99.90;;;;;;6218418;23;20140;-87
2022/05/25 06:04:19;;;;;;;4.05;3.33;;;16.10;99.90;;;;;;6196726;23;20204;-88
2022/05/25 06:06:44;;;;;;;4.50;3.22;;;16.10;99.90;;;;;;6161953;23;20262;-87
2022/05/25 06:09:10;;;;;;;4.18;2.97;;;16.20;99.90;;;;;;6137505;23;20619;-88
2022/05/25 06:11:41;;;;;;;3.50;2.90;;;16.50;99.90;;;;;;6161753;23;20624;-88
2022/05/25 06:14:10;;;;;;;4.10;2.78;;;16.50;99.90;;;;;;6161584;23;20164;-89
2022/05/25 06:19:26;;;;;;;4.75;3.35;;;16.50;99.90;;;;;;6188606;23;20164;-88
2022/05/25 06:21:58;;;;;;;4.97;3.50;;;16.60;99.90;;;;;;6187735;23;20168;-88
2022/05/25 06:24:35;;;;;;;3.85;3.10;;;16.90;99.90;;;;;;6191516;23;20156;-88
2022/05/25 06:27:04;;;;;;;4.78;3.38;;;16.90;99.90;;;;;;6162130;23;20164;-89
2022/05/25 06:29:38;;;;;;;5.97;3.15;;;17.20;99.90;;;;;;6161647;23;20164;-87
2022/05/25 06:32:06;;;;;;;3.78;2.90;;;17.20;99.90;;;;;;6137452;23;20640;-87
2022/05/25 06:34:42;;;;;;;5.40;3.40;;;17.70;99.90;;;;;;6184829;23;20164;-88
2022/05/25 06:37:26;;;;;;;4.53;2.97;;;17.40;99.90;;;;;;6184409;23;20156;-86
2022/05/25 06:40:03;;;;;;;3.85;3.35;;;17.30;99.90;;;;;;6185719;23;20160;-88
2022/05/25 06:42:29;;;;;;;5.88;3.53;;;;;;;;;;6186701;23;20164;-87
2022/05/25 06:44:55;;;;;;;3.53;2.83;;;;;;;;;;6188768;23;20602;-88
2022/05/25 06:47:34;;;;;;;;;;;;;;;;;;;;;
2022/05/25 06:50:02;;;;;;;4.75;3.25;;;17.60;99.90;;;;;;6190130;23;20239;-89
2022/05/25 06:56:11;;;;;;;5.28;3.35;;;17.60;99.90;;;;;;6187228;23;20482;-88
2022/05/25 06:58:37;;;;;;;4.70;3.28;;;17.60;99.90;;;;;;6186656;23;20149;-89
2022/05/25 07:01:04;;;;;;;4.97;3.10;;;17.60;99.90;;;;;;6187425;23;20284;-88
2022/05/25 07:03:33;;;;;;;4.57;3.40;;;17.90;99.90;;;;;;6160527;23;20651;-88
2022/05/25 07:06:03;;;;;;;4.75;3.85;;;17.70;99.90;;;;;;6160168;23;20176;-90
2022/05/25 07:08:31;;;;;;;3.38;3.08;;;17.60;99.90;;;;;;6160483;23;20157;-88
2022/05/25 07:11:03;;;;;;;5.28;3.70;;;17.60;99.90;;;;;;6187117;23;20180;-89
2022/05/25 07:13:32;;;;;;;4.53;3.30;;;17.70;99.90;;;;;;6160641;23;20206;-88
2022/05/25 07:16:13;;;;;;;;;;;;;;;;;;;;;
2022/05/25 07:18:45;;;;;;;5.47;3.70;;;17.80;99.90;;;;;;6186788;23;20208;-89
2022/05/25 07:21:20;;;;;;;4.25;3.10;;;17.90;99.90;;;;;;6186524;23;20598;-89
2022/05/25 07:23:50;;;;;;;9.13;4.10;;;17.90;99.90;;;;;;6161219;23;20167;-89
2022/05/25 07:26:17;;;;;;;3.83;3.35;;;18.10;99.90;;;;;;6160456;23;20164;-89
2022/05/25 07:28:46;;;;;;;5.70;4.05;;;17.80;99.90;;;;;;6160570;23;20156;-88
2022/05/25 07:31:31;;;;;;;6.57;4.18;;;18.10;99.90;;;;;;6161372;23;20315;-89
2022/05/25 07:37:32;;;;;;;11.95;5.47;;;17.00;99.90;;;;;;6185785;23;20220;-89
2022/05/25 07:40:26;;;;;;;8.38;5.57;;;18.50;99.90;;;;;;6138007;23;20252;-89
2022/05/25 07:43:01;;;;;;;9.68;5.57;;;18.60;99.90;;;;;;6161994;23;20161;-88
2022/05/25 07:45:49;;;;;;;9.50;5.57;;;19.00;99.90;;;;;;6159779;23;20218;-86
2022/05/25 07:48:24;;;;;;;9.23;4.97;;;19.50;99.90;;;;;;6159181;23;20161;-87
2022/05/25 07:50:51;;;;;;;14.07;5.45;;;;;;;;;;6159518;23;20263;-86
2022/05/25 07:56:05;;;;;;;6.95;4.63;;;19.40;99.90;;;;;;6187821;23;20151;-89
2022/05/25 07:58:34;;;;;;;5.85;4.72;;;19.20;99.90;;;;;;6164638;23;20600;-87
2022/05/25 08:01:09;;;;;;;8.02;4.13;;;19.40;99.90;;;;;;6145340;23;20512;-87
2022/05/25 08:06:24;;;;;;;7.22;4.90;;;19.20;99.90;;;;;;6181393;23;20175;-86
2022/05/25 08:09:02;;;;;;;4.38;3.60;;;19.50;99.90;;;;;;6188299;23;20145;-89
2022/05/25 08:11:32;;;;;;;4.95;4.03;;;;;;;;;;6161604;23;20188;-88
2022/05/25 08:13:58;;;;;;;4.38;3.22;;;19.60;99.90;;;;;;6161096;23;20167;-86
2022/05/25 08:16:31;;;;;;;6.88;3.63;;;19.70;99.90;;;;;;6162176;23;20180;-85
2022/05/25 08:19:00;;;;;;;5.40;3.60;;;;;;;;;;6191100;23;20153;-86
2022/05/25 08:21:28;;;;;;;5.65;3.65;;;19.90;99.90;;;;;;6188572;23;20547;-86
2022/05/25 08:23:56;;;;;;;5.55;4.07;;;18.90;99.90;;;;;;6136656;23;20160;-86
2022/05/25 08:26:24;;;;;;;4.70;4.00;;;19.30;99.90;;;;;;6136817;23;20227;-87
2022/05/25 08:28:53;;;;;;;4.85;3.88;;;19.90;99.90;;;;;;6187037;23;20149;-86
2022/05/25 08:31:27;;;;;;;4.78;3.58;;;20.20;99.90;;;;;;6161188;23;20242;-86
2022/05/25 08:33:56;;;;;;;5.30;3.80;;;;;;;;;;6160858;23;20160;-86
2022/05/25 08:36:22;;;;;;;5.72;3.80;;;;;;;;;;6166760;23;20493;-90
2022/05/25 08:38:48;;;;;;;5.60;3.53;;;;;;;;;;6178577;23;20141;-86
2022/05/25 08:41:24;;;;;;;5.75;4.13;;;20.80;99.90;;;;;;6176377;23;20619;-88
2022/05/25 08:43:51;;;;;;;5.32;4.57;;;;;;;;;;6179544;23;20132;-87
2022/05/25 08:46:23;;;;;;;4.55;3.67;;;20.80;99.90;;;;;;6165947;23;20176;-88
2022/05/25 08:48:55;;;;;;;7.10;5.03;;;20.90;99.90;;;;;;6136908;23;20486;-88
2022/05/25 08:51:28;;;;;;;6.13;4.00;;;20.90;99.90;;;;;;6187231;23;20255;-88
2022/05/25 08:53:59;;;;;;;8.95;5.07;;;20.90;99.90;;;;;;6186973;23;20145;-88
2022/05/25 08:56:28;;;;;;;5.70;3.78;;;;;;;;;;6159800;23;20164;-88
2022/05/25 08:59:30;;;;;;;5.65;4.00;;;21.00;99.90;;;;;;6186609;23;20252;-87
2022/05/25 09:02:12;;;;;;;4.70;3.83;;;20.80;99.90;;;;;;6108847;23;20175;-89
2022/05/25 09:05:01;;;;;;;4.82;3.50;;;21.00;99.90;;;;;;6169233;23;20203;-88
2022/05/25 09:07:48;;;;;;;6.20;3.80;;;20.90;99.90;;;;;;6187264;23;20164;-90
2022/05/25 09:10:15;;;;;;;5.93;3.80;;;21.00;99.90;;;;;;6186205;23;20202;-90
2022/05/25 09:12:50;;;;;;;8.32;3.92;;;21.40;99.90;;;;;;6160437;23;20192;-91
2022/05/25 09:16:15;;;;;;;6.38;3.55;;;21.40;99.90;;;;;;6187740;23;20167;-92
2022/05/25 09:18:41;;;;;;;5.85;3.63;;;21.40;99.90;;;;;;6189401;23;20161;-93
2022/05/25 09:21:17;;;;;;;;;;;;;;;;;;;;;
2022/05/25 09:23:44;;;;;;;5.80;3.92;;;;;;;;;;6186624;23;20223;-88
2022/05/25 09:26:13;;;;;;;5.68;4.30;;;;;;;;;;6184546;23;20210;-89
2022/05/25 09:28:47;;;;;;;7.95;4.53;;;22.40;99.90;;;;;;6185065;23;20177;-90
2022/05/25 09:31:31;;;;;;;7.10;4.20;;;22.50;99.90;;;;;;6185446;23;20290;-89
2022/05/25 09:34:03;;;;;;;6.28;3.88;;;22.50;99.90;;;;;;6185211;23;20488;-88
2022/05/25 09:36:58;;;;;;;4.88;3.50;;;22.80;99.90;;;;;;6184283;23;20508;-90
2022/05/25 09:39:36;;;;;;;5.35;3.90;;;23.00;99.90;;;;;;6184846;23;20300;-89
2022/05/25 09:42:16;;;;;;;3.90;3.55;;;23.00;99.90;;;;;;6185555;23;20187;-88
2022/05/25 09:44:52;;;;;;;;;;;;;;;;;;;;;
2022/05/25 09:47:24;;;;;;;5.30;3.88;;;22.60;99.90;;;;;;6186469;23;20524;-89
2022/05/25 09:49:59;;;;;;;3.95;3.45;;;22.30;99.90;;;;;;6185319;23;20161;-89
2022/05/25 09:52:48;;;;;;;3.63;3.30;;;22.60;99.90;;;;;;6184977;23;20188;-88
2022/05/25 09:55:37;;;;;;;;;;;;;;;;;;;;;
2022/05/25 09:58:07;;;;;;;7.13;3.17;;;22.00;99.90;;;;;;6186882;23;20231;-90
2022/05/25 10:00:36;;;;;;;4.38;2.92;;;;;;;;;;6184888;23;20236;-87
2022/05/25 10:03:07;;;;;;;4.03;3.25;;;21.90;99.90;;;;;;6186052;23;20160;-87
2022/05/25 10:05:50;;;;;;;7.40;3.78;;;21.50;99.90;;;;;;6184543;23;20203;-88
2022/05/25 10:08:36;;;;;;;6.78;3.50;;;21.40;99.90;;;;;;6186503;23;20136;-89
2022/05/25 10:11:10;;;;;;;3.90;3.38;;;21.40;99.90;;;;;;6184848;23;20180;-88
2022/05/25 10:13:43;;;;;;;5.10;3.78;;;21.40;99.90;;;;;;6184547;23;20576;-88
2022/05/25 10:16:38;;;;;;;3.88;3.35;;;21.50;99.90;;;;;;6186182;23;20223;-90
2022/05/25 10:19:13;;;;;;;4.72;3.30;;;21.50;99.90;;;;;;6140872;23;20181;-90
2022/05/25 10:21:52;;;;;;;4.90;3.80;;;21.70;99.90;;;;;;6186044;23;20148;-90
2022/05/25 10:24:23;;;;;;;5.32;3.72;;;21.60;99.90;;;;;;6185087;23;20183;-90
2022/05/25 10:27:02;;;;;;;5.03;3.22;;;22.10;99.90;;;;;;6186401;23;20176;-89
2022/05/25 10:38:11;;;;;;;5.55;4.18;;;21.80;99.90;;;;;;6187461;23;20148;-87
2022/05/25 10:40:42;;;;;;;6.30;4.20;;;21.90;99.90;;;;;;6193437;23;20156;-87
2022/05/25 10:43:15;;;;;;;6.65;4.07;;;21.90;99.90;;;;;;6183997;23;20164;-87
2022/05/25 10:45:44;;;;;;;4.88;3.78;;;21.80;99.90;;;;;;6196714;23;20148;-88
2022/05/25 10:48:18;;;;;;;4.05;3.42;;;21.50;99.90;;;;;;6185327;23;20157;-90
2022/05/25 10:50:56;;;;;;;4.32;3.78;;;21.40;99.90;;;;;;6186431;23;20231;-90
2022/05/25 10:54:44;;;;;;;5.78;3.25;;;21.60;99.90;;;;;;6186841;23;20144;-87
2022/05/25 10:56:57;;;;;;;4.70;3.70;;;22.00;99.90;;;;;;6166072;23;20163;-89
2022/05/25 10:59:25;;;;;;;3.90;3.22;;;22.10;99.90;;;;;;6186600;23;20152;-87
2022/05/25 11:02:05;;;;;;;4.57;3.22;;;22.40;99.90;;;;;;6185718;23;20584;-88
2022/05/25 11:04:53;;;;;;;4.07;3.10;;;22.70;99.90;;;;;;6195557;23;20673;-89
2022/05/25 11:07:33;;;;;;;4.20;3.38;;;22.50;99.90;;;;;;6189608;23;20214;-87
2022/05/25 11:10:19;;;;;;;6.70;3.17;;;22.40;99.90;;;;;;6216446;23;20144;-88
2022/05/25 11:12:58;;;;;;;3.50;3.00;;;22.40;99.90;;;;;;6189444;23;20187;-87
2022/05/25 11:15:28;;;;;;;4.68;3.65;;;22.20;99.90;;;;;;6190680;23;20159;-91
2022/05/25 11:18:11;;;;;;;5.22;3.92;;;22.10;99.90;;;;;;6190476;23;20205;-89
2022/05/25 11:20:56;;;;;;;5.40;4.00;;;22.00;99.90;;;;;;6191451;23;20160;-91
2022/05/25 11:23:47;;;;;;;6.28;4.40;;;21.70;99.90;;;;;;6193991;23;20155;-89
2022/05/25 11:26:42;;;;;;;6.72;4.20;;;21.60;99.90;;;;;;6211786;23;20208;-89
2022/05/25 11:29:30;;;;;;;6.25;4.63;;;21.50;99.90;;;;;;6212553;23;20223;-89
2022/05/25 11:32:10;;;;;;;6.50;4.75;;;21.40;99.90;;;;;;6236672;23;20225;-89
2022/05/25 11:35:21;;;;;;;8.20;4.70;;;21.40;99.90;;;;;;6203817;23;20582;-92
2022/05/25 11:38:01;;;;;;;7.45;4.53;;;21.30;99.90;;;;;;6192630;23;20152;-90
2022/05/25 11:40:46;;;;;;;5.22;3.97;;;21.30;99.90;;;;;;6217772;23;20235;-90
2022/05/25 11:43:54;;;;;;;6.30;4.80;;;21.20;99.90;;;;;;6217654;23;20215;-91
2022/05/25 11:46:25;;;;;;;9.05;4.97;;;21.30;99.90;;;;;;6164002;23;20156;-92
2022/05/25 11:49:03;;;;;;;8.98;6.03;;;21.30;99.90;;;;;;6219007;23;20151;-89
2022/05/25 11:51:48;;;;;;;9.25;5.40;;;21.30;99.90;;;;;;6244669;23;20183;-92
2022/05/25 11:54:44;;;;;;;7.55;5.53;;;21.20;99.90;;;;;;6244629;23;20140;-93
2022/05/25 11:57:35;;;;;;;7.70;5.40;;;21.30;99.90;;;;;;6218609;23;20149;-92
2022/05/25 12:00:35;;;;;;;9.52;6.63;;;21.40;99.90;;;;;;6218405;23;20144;-90
2022/05/25 12:03:45;;;;;;;9.32;6.22;;;21.30;99.90;;;;;;6217652;23;20171;-92
2022/05/25 12:06:39;;;;;;;11.25;6.88;;;21.20;99.90;;;;;;6112032;23;20232;-89
2022/05/25 12:09:22;;;;;;;12.82;7.28;;;21.20;99.90;;;;;;6166831;23;20213;-89
2022/05/25 12:12:04;;;;;;;10.20;6.45;;;21.30;99.90;;;;;;6166259;23;20184;-88
2022/05/25 12:15:09;;;;;;;8.57;6.38;;;21.30;99.90;;;;;;6191390;23;20202;-88
2022/05/25 12:18:13;;;;;;;9.48;6.53;;;21.40;99.90;;;;;;6189298;23;20153;-90
2022/05/25 12:21:26;;;;;;;8.43;6.25;;;21.50;99.90;;;;;;6189438;23;20336;-89
2022/05/25 12:24:00;;;;;;;8.15;6.22;;;21.60;99.90;;;;;;6137459;23;20157;-89
2022/05/25 12:26:29;;;;;;;10.07;6.63;;;21.60;99.90;;;;;;6188480;23;20159;-88
2022/05/25 12:29:13;;;;;;;8.63;5.75;;;21.70;99.90;;;;;;6162622;23;20197;-88
2022/05/25 12:31:41;;;;;;;6.78;4.55;;;21.80;99.90;;;;;;6188800;23;20437;-88
2022/05/25 12:34:14;;;;;;;6.25;4.13;;;21.90;99.90;;;;;;6189826;23;20153;-88
2022/05/25 12:36:42;;;;;;;6.53;4.38;;;21.90;99.90;;;;;;6188824;23;20141;-89
2022/05/25 12:39:11;;;;;;;7.78;4.57;;;22.00;99.90;;;;;;6189813;23;20236;-89
2022/05/25 12:41:39;;;;;;;6.88;5.00;;;22.00;99.90;;;;;;6167410;23;20184;-86
2022/05/25 12:50:50;;;;;;;6.72;4.30;;;21.70;99.90;;;;;;6141512;23;20610;-86
2022/05/25 12:53:46;;;;;;;6.82;4.82;;;21.50;99.90;;;;;;6189704;23;20152;-86
2022/05/25 12:56:23;;;;;;;5.80;4.22;;;21.30;99.90;;;;;;6188408;23;20160;-87
2022/05/25 12:58:52;;;;;;;5.40;4.03;;;21.20;99.90;;;;;;6161704;23;20156;-87
2022/05/25 13:01:25;;;;;;;5.68;4.40;;;21.10;99.90;;;;;;6161710;23;20220;-87
2022/05/25 13:03:50;;;;;;;6.35;4.35;;;21.00;99.90;;;;;;6161091;23;20219;-87
2022/05/25 13:06:29;;;;;;;6.53;4.32;;;20.90;99.90;;;;;;6190264;23;20227;-89
2022/05/25 13:08:55;;;;;;;5.90;4.93;;;21.00;99.90;;;;;;6190652;23;20156;-88
2022/05/25 13:11:43;;;;;;;7.00;5.20;;;21.00;99.90;;;;;;6190816;23;20184;-86
2022/05/25 13:14:16;;;;;;;10.05;5.65;;;21.00;99.90;;;;;;6189820;23;20502;-88
2022/05/25 13:16:51;;;;;;;10.25;5.43;;;20.90;99.90;;;;;;6190971;23;20160;-87
2022/05/25 13:19:18;;;;;;;7.85;4.82;;;20.90;99.90;;;;;;6191175;23;20625;-88
2022/05/25 13:22:21;;;;;;;7.25;5.22;;;20.80;99.90;;;;;;6218056;23;20602;-87
2022/05/25 13:25:12;;;;;;;7.95;5.78;;;20.70;99.90;;;;;;6217574;23;20206;-87
2022/05/25 13:27:58;;;;;;;7.22;4.95;;;20.70;99.90;;;;;;6193147;23;20601;-88
2022/05/25 13:30:39;;;;;;;9.43;5.65;;;20.60;99.90;;;;;;6220354;23;20152;-88
2022/05/25 13:33:13;;;;;;;7.28;5.32;;;20.60;99.90;;;;;;6192715;23;20172;-87
2022/05/25 13:36:02;;;;;;;7.85;5.22;;;20.60;99.90;;;;;;6193038;23;20159;-89
2022/05/25 13:38:39;;;;;;;8.18;5.60;;;20.50;99.90;;;;;;6219199;23;20613;-89
2022/05/25 13:41:13;;;;;;;7.25;5.15;;;20.40;99.90;;;;;;6191588;23;20187;-89
2022/05/25 13:43:57;;;;;;;6.35;4.85;;;20.20;99.90;;;;;;6194389;23;20227;-92
2022/05/25 13:46:45;;;;;;;7.45;5.25;;;20.10;99.90;;;;;;6198322;23;20184;-91
2022/05/25 13:49:22;;;;;;;7.32;5.80;;;20.00;99.90;;;;;;6201515;23;20233;-91
2022/05/25 13:51:48;;;;;;;8.18;5.35;;;19.60;99.90;;;;;;6193736;23;20638;-90
2022/05/25 13:54:22;;;;;;;8.45;6.15;;;19.80;99.90;;;;;;6221194;23;20206;-91
2022/05/25 13:56:48;;;;;;;9.68;5.93;;;19.70;99.90;;;;;;6225318;23;20154;-91
2022/05/25 13:59:17;;;;;;;8.50;5.38;;;19.50;99.90;;;;;;6221285;23;20227;-89
2022/05/25 14:01:43;;;;;;;8.20;5.88;;;19.00;99.90;;;;;;6190775;23;20167;-85
2022/05/25 14:10:55;;;;;;;7.13;4.40;;;16.70;99.90;;;;;;6124386;23;20165;-86
2022/05/25 14:13:25;;;;;;;7.22;5.45;;;16.30;99.90;;;;;;6124622;23;20146;-87
2022/05/25 14:16:19;;;;;;;8.07;5.13;;;16.00;99.90;;;;;;6124666;23;20154;-86
2022/05/25 14:18:52;;;;;;;8.90;4.65;;;15.80;99.90;;;;;;6096356;23;20249;-87
2022/05/25 14:21:38;;;;;;;8.13;4.40;;;15.60;99.90;;;;;;6099556;23;20166;-86
2022/05/25 14:24:29;;;;;;;7.00;3.97;;;15.40;99.90;;;;;;6124444;23;20157;-87
2022/05/25 14:27:00;;;;;;;5.95;4.38;;;15.40;99.90;;;;;;6124895;23;20192;-86
2022/05/25 14:29:29;;;;;;;10.30;5.03;;;15.30;99.90;;;;;;6125513;23;20142;-87
2022/05/25 14:32:10;;;;;;;6.88;4.55;;;15.30;99.90;;;;;;6126403;23;20197;-88
2022/05/25 14:34:40;;;;;;;5.70;3.80;;;15.30;99.90;;;;;;6126080;23;20233;-87
2022/05/25 14:37:05;;;;;;;6.25;4.72;;;15.30;99.90;;;;;;6113208;23;20245;-88
2022/05/25 14:39:34;;;;;;;5.75;4.78;;;15.10;99.90;;;;;;6191983;23;20183;-87
2022/05/25 14:42:03;;;;;;;6.82;4.50;;;15.10;99.90;;;;;;6197131;23;20174;-93
2022/05/25 14:45:00;;;;;;;7.30;5.05;;;15.10;99.90;;;;;;6213826;23;20174;-89
2022/05/25 14:47:29;;;;;;;9.38;4.75;;;15.20;99.90;;;;;;6160121;23;20591;-87